sensor_id;sensor_type;location;lat;lon;timestamp;temperature;humidity
3550;DHT22;45572;48.804;8.330;2022-08-20T00:01:16;22.30;80.40
3550;DHT22;45572;48.804;8.330;2022-08-20T00:03:44;22.30;80.30
3550;DHT22;45572;48.804;8.330;2022-08-20T00:06:22;22.30;80.40
3550;DHT22;45572;48.804;8.330;2022-08-20T00:08:50;22.10;80.90
3550;DHT22;45572;48.804;8.330;2022-08-20T00:11:21;22.10;81.10
3550;DHT22;45572;48.804;8.330;2022-08-20T00:13:53;21.90;81.60
3550;DHT22;45572;48.804;8.330;2022-08-20T00:16:23;22.00;81.50
3550;DHT22;45572;48.804;8.330;2022-08-20T00:18:51;22.10;81.40
3550;DHT22;45572;48.804;8.330;2022-08-20T00:21:21;22.20;81.10
3550;DHT22;45572;48.804;8.330;2022-08-20T00:23:53;22.30;81.00
3550;DHT22;45572;48.804;8.330;2022-08-20T00:26:22;22.40;80.70
3550;DHT22;45572;48.804;8.330;2022-08-20T00:28:51;22.40;80.70
3550;DHT22;45572;48.804;8.330;2022-08-20T00:31:21;22.30;80.60
3550;DHT22;45572;48.804;8.330;2022-08-20T00:33:50;22.20;81.20
3550;DHT22;45572;48.804;8.330;2022-08-20T00:36:19;22.30;81.00
3550;DHT22;45572;48.804;8.330;2022-08-20T00:38:57;22.20;81.10
3550;DHT22;45572;48.804;8.330;2022-08-20T00:41:26;22.10;81.40
3550;DHT22;45572;48.804;8.330;2022-08-20T00:44:06;22.00;81.90
3550;DHT22;45572;48.804;8.330;2022-08-20T00:46:36;22.20;81.60
3550;DHT22;45572;48.804;8.330;2022-08-20T00:49:05;22.20;81.30
3550;DHT22;45572;48.804;8.330;2022-08-20T00:51:39;22.20;81.50
3550;DHT22;45572;48.804;8.330;2022-08-20T00:54:12;22.20;81.70
3550;DHT22;45572;48.804;8.330;2022-08-20T00:56:40;22.30;81.30
3550;DHT22;45572;48.804;8.330;2022-08-20T00:59:14;22.50;81.10
3550;DHT22;45572;48.804;8.330;2022-08-20T01:01:44;22.50;81.20
3550;DHT22;45572;48.804;8.330;2022-08-20T01:04:22;22.60;81.20
3550;DHT22;45572;48.804;8.330;2022-08-20T01:06:53;22.50;81.20
3550;DHT22;45572;48.804;8.330;2022-08-20T01:09:21;22.50;81.00
3550;DHT22;45572;48.804;8.330;2022-08-20T01:12:09;22.30;81.50
3550;DHT22;45572;48.804;8.330;2022-08-20T01:14:37;22.40;81.50
3550;DHT22;45572;48.804;8.330;2022-08-20T01:17:14;22.40;81.60
3550;DHT22;45572;48.804;8.330;2022-08-20T01:19:46;22.10;82.40
3550;DHT22;45572;48.804;8.330;2022-08-20T01:22:22;22.20;82.10
3550;DHT22;45572;48.804;8.330;2022-08-20T01:25:14;22.20;82.20
3550;DHT22;45572;48.804;8.330;2022-08-20T01:27:46;22.40;81.80
3550;DHT22;45572;48.804;8.330;2022-08-20T01:30:24;22.50;81.60
3550;DHT22;45572;48.804;8.330;2022-08-20T01:32:52;22.60;81.40
3550;DHT22;45572;48.804;8.330;2022-08-20T01:35:21;22.50;81.30
3550;DHT22;45572;48.804;8.330;2022-08-20T01:37:49;22.60;81.70
3550;DHT22;45572;48.804;8.330;2022-08-20T01:40:26;22.70;81.50
3550;DHT22;45572;48.804;8.330;2022-08-20T01:43:00;22.50;81.90
3550;DHT22;45572;48.804;8.330;2022-08-20T01:45:35;22.60;81.60
3550;DHT22;45572;48.804;8.330;2022-08-20T01:48:06;22.50;81.70
3550;DHT22;45572;48.804;8.330;2022-08-20T01:50:39;22.60;81.70
3550;DHT22;45572;48.804;8.330;2022-08-20T01:53:14;22.50;81.60
3550;DHT22;45572;48.804;8.330;2022-08-20T01:55:43;22.20;82.80
3550;DHT22;45572;48.804;8.330;2022-08-20T01:58:13;22.20;82.90
3550;DHT22;45572;48.804;8.330;2022-08-20T02:00:41;22.30;82.40
3550;DHT22;45572;48.804;8.330;2022-08-20T02:03:09;22.40;81.80
3550;DHT22;45572;48.804;8.330;2022-08-20T02:05:37;22.40;81.70
3550;DHT22;45572;48.804;8.330;2022-08-20T02:08:05;22.50;81.50
3550;DHT22;45572;48.804;8.330;2022-08-20T02:10:33;22.60;81.40
3550;DHT22;45572;48.804;8.330;2022-08-20T02:13:03;22.60;80.80
3550;DHT22;45572;48.804;8.330;2022-08-20T02:15:34;22.60;81.00
3550;DHT22;45572;48.804;8.330;2022-08-20T02:18:13;22.60;81.20
3550;DHT22;45572;48.804;8.330;2022-08-20T02:20:41;22.60;80.80
3550;DHT22;45572;48.804;8.330;2022-08-20T02:23:10;22.70;81.00
3550;DHT22;45572;48.804;8.330;2022-08-20T02:25:39;22.70;80.80
3550;DHT22;45572;48.804;8.330;2022-08-20T02:28:11;22.70;80.60
3550;DHT22;45572;48.804;8.330;2022-08-20T02:30:44;22.80;80.40
3550;DHT22;45572;48.804;8.330;2022-08-20T02:33:15;22.70;80.60
3550;DHT22;45572;48.804;8.330;2022-08-20T02:35:45;22.70;80.90
3550;DHT22;45572;48.804;8.330;2022-08-20T02:38:15;22.80;80.50
3550;DHT22;45572;48.804;8.330;2022-08-20T02:40:44;22.80;81.30
3550;DHT22;45572;48.804;8.330;2022-08-20T02:43:14;22.70;82.20
3550;DHT22;45572;48.804;8.330;2022-08-20T02:45:45;22.40;82.90
3550;DHT22;45572;48.804;8.330;2022-08-20T02:48:16;22.20;84.40
3550;DHT22;45572;48.804;8.330;2022-08-20T02:50:48;22.20;85.60
3550;DHT22;45572;48.804;8.330;2022-08-20T02:53:17;22.00;85.10
3550;DHT22;45572;48.804;8.330;2022-08-20T02:55:45;22.10;85.70
3550;DHT22;45572;48.804;8.330;2022-08-20T02:58:13;22.10;86.00
3550;DHT22;45572;48.804;8.330;2022-08-20T03:00:41;21.90;87.10
3550;DHT22;45572;48.804;8.330;2022-08-20T03:03:12;21.90;87.70
3550;DHT22;45572;48.804;8.330;2022-08-20T03:05:42;21.90;87.40
3550;DHT22;45572;48.804;8.330;2022-08-20T03:08:12;21.90;87.60
3550;DHT22;45572;48.804;8.330;2022-08-20T03:10:42;21.80;88.20
3550;DHT22;45572;48.804;8.330;2022-08-20T03:13:12;21.70;87.40
3550;DHT22;45572;48.804;8.330;2022-08-20T03:15:42;21.80;86.30
3550;DHT22;45572;48.804;8.330;2022-08-20T03:18:12;21.80;86.50
3550;DHT22;45572;48.804;8.330;2022-08-20T03:20:41;21.70;86.60
3550;DHT22;45572;48.804;8.330;2022-08-20T03:23:12;21.50;87.40
3550;DHT22;45572;48.804;8.330;2022-08-20T03:25:40;21.50;88.80
3550;DHT22;45572;48.804;8.330;2022-08-20T03:28:08;21.50;88.50
3550;DHT22;45572;48.804;8.330;2022-08-20T03:30:36;21.60;88.40
3550;DHT22;45572;48.804;8.330;2022-08-20T03:33:04;21.70;88.60
3550;DHT22;45572;48.804;8.330;2022-08-20T03:35:34;21.80;88.40
3550;DHT22;45572;48.804;8.330;2022-08-20T03:38:06;21.90;88.50
3550;DHT22;45572;48.804;8.330;2022-08-20T03:40:35;22.00;87.70
3550;DHT22;45572;48.804;8.330;2022-08-20T03:43:03;22.00;87.70
3550;DHT22;45572;48.804;8.330;2022-08-20T03:45:31;22.00;87.80
3550;DHT22;45572;48.804;8.330;2022-08-20T03:47:59;21.90;87.30
3550;DHT22;45572;48.804;8.330;2022-08-20T03:50:30;21.70;88.40
3550;DHT22;45572;48.804;8.330;2022-08-20T03:53:00;21.60;88.90
3550;DHT22;45572;48.804;8.330;2022-08-20T03:55:30;21.70;88.10
3550;DHT22;45572;48.804;8.330;2022-08-20T03:58:00;21.70;88.10
3550;DHT22;45572;48.804;8.330;2022-08-20T04:00:31;21.70;88.00
3550;DHT22;45572;48.804;8.330;2022-08-20T04:02:59;21.80;88.30
3550;DHT22;45572;48.804;8.330;2022-08-20T04:05:28;21.80;88.70
3550;DHT22;45572;48.804;8.330;2022-08-20T04:07:57;21.80;88.70
3550;DHT22;45572;48.804;8.330;2022-08-20T04:10:31;21.90;88.20
3550;DHT22;45572;48.804;8.330;2022-08-20T04:12:59;22.00;87.90
3550;DHT22;45572;48.804;8.330;2022-08-20T04:15:27;22.00;87.50
3550;DHT22;45572;48.804;8.330;2022-08-20T04:17:57;22.10;87.30
3550;DHT22;45572;48.804;8.330;2022-08-20T04:20:26;22.10;87.60
3550;DHT22;45572;48.804;8.330;2022-08-20T04:22:55;22.10;87.70
3550;DHT22;45572;48.804;8.330;2022-08-20T04:25:25;22.00;88.10
3550;DHT22;45572;48.804;8.330;2022-08-20T04:27:56;22.00;88.20
3550;DHT22;45572;48.804;8.330;2022-08-20T04:30:25;21.90;88.40
3550;DHT22;45572;48.804;8.330;2022-08-20T04:32:53;21.80;88.60
3550;DHT22;45572;48.804;8.330;2022-08-20T04:35:22;21.80;88.80
3550;DHT22;45572;48.804;8.330;2022-08-20T04:37:57;21.70;89.30
3550;DHT22;45572;48.804;8.330;2022-08-20T04:40:25;21.40;90.30
3550;DHT22;45572;48.804;8.330;2022-08-20T04:43:08;21.10;91.20
3550;DHT22;45572;48.804;8.330;2022-08-20T04:45:38;21.20;90.70
3550;DHT22;45572;48.804;8.330;2022-08-20T04:48:06;21.40;90.40
3550;DHT22;45572;48.804;8.330;2022-08-20T04:50:42;21.40;89.90
3550;DHT22;45572;48.804;8.330;2022-08-20T04:53:15;21.30;90.00
3550;DHT22;45572;48.804;8.330;2022-08-20T04:55:51;21.00;91.30
3550;DHT22;45572;48.804;8.330;2022-08-20T04:58:23;21.20;90.40
3550;DHT22;45572;48.804;8.330;2022-08-20T05:00:56;21.40;89.70
3550;DHT22;45572;48.804;8.330;2022-08-20T05:03:27;21.40;89.40
3550;DHT22;45572;48.804;8.330;2022-08-20T05:05:55;21.30;90.10
3550;DHT22;45572;48.804;8.330;2022-08-20T05:08:24;21.40;90.00
3550;DHT22;45572;48.804;8.330;2022-08-20T05:10:54;21.50;89.50
3550;DHT22;45572;48.804;8.330;2022-08-20T05:13:44;21.60;89.00
3550;DHT22;45572;48.804;8.330;2022-08-20T05:16:12;21.70;89.10
3550;DHT22;45572;48.804;8.330;2022-08-20T05:18:40;21.70;88.90
3550;DHT22;45572;48.804;8.330;2022-08-20T05:21:16;21.70;88.80
3550;DHT22;45572;48.804;8.330;2022-08-20T05:23:44;21.80;88.60
3550;DHT22;45572;48.804;8.330;2022-08-20T05:26:12;21.80;88.40
3550;DHT22;45572;48.804;8.330;2022-08-20T05:28:42;21.80;88.30
3550;DHT22;45572;48.804;8.330;2022-08-20T05:31:26;21.80;88.40
3550;DHT22;45572;48.804;8.330;2022-08-20T05:33:59;21.90;88.30
3550;DHT22;45572;48.804;8.330;2022-08-20T05:36:27;22.00;88.30
3550;DHT22;45572;48.804;8.330;2022-08-20T05:38:55;22.00;88.40
3550;DHT22;45572;48.804;8.330;2022-08-20T05:41:23;22.10;88.10
3550;DHT22;45572;48.804;8.330;2022-08-20T05:43:56;22.10;88.00
3550;DHT22;45572;48.804;8.330;2022-08-20T05:46:28;22.10;87.00
3550;DHT22;45572;48.804;8.330;2022-08-20T05:48:56;22.10;87.70
3550;DHT22;45572;48.804;8.330;2022-08-20T05:51:25;22.00;88.30
3550;DHT22;45572;48.804;8.330;2022-08-20T05:53:53;22.10;87.90
3550;DHT22;45572;48.804;8.330;2022-08-20T05:56:25;22.20;87.50
3550;DHT22;45572;48.804;8.330;2022-08-20T05:58:56;22.30;87.80
3550;DHT22;45572;48.804;8.330;2022-08-20T06:01:24;22.20;87.60
3550;DHT22;45572;48.804;8.330;2022-08-20T06:03:53;22.20;87.90
3550;DHT22;45572;48.804;8.330;2022-08-20T06:06:35;22.10;88.20
3550;DHT22;45572;48.804;8.330;2022-08-20T06:09:13;22.20;87.40
3550;DHT22;45572;48.804;8.330;2022-08-20T06:11:41;22.20;86.50
3550;DHT22;45572;48.804;8.330;2022-08-20T06:14:09;22.30;85.60
3550;DHT22;45572;48.804;8.330;2022-08-20T06:16:37;22.40;85.50
3550;DHT22;45572;48.804;8.330;2022-08-20T06:19:24;22.50;84.00
3550;DHT22;45572;48.804;8.330;2022-08-20T06:21:52;22.50;83.60
3550;DHT22;45572;48.804;8.330;2022-08-20T06:24:22;22.40;83.30
3550;DHT22;45572;48.804;8.330;2022-08-20T06:26:54;22.40;83.50
3550;DHT22;45572;48.804;8.330;2022-08-20T06:29:22;22.40;83.70
3550;DHT22;45572;48.804;8.330;2022-08-20T06:31:50;22.50;83.60
3550;DHT22;45572;48.804;8.330;2022-08-20T06:34:18;22.50;83.00
3550;DHT22;45572;48.804;8.330;2022-08-20T06:36:47;22.40;83.50
3550;DHT22;45572;48.804;8.330;2022-08-20T06:39:14;22.40;83.50
3550;DHT22;45572;48.804;8.330;2022-08-20T06:41:44;22.60;83.50
3550;DHT22;45572;48.804;8.330;2022-08-20T06:44:13;22.60;83.10
3550;DHT22;45572;48.804;8.330;2022-08-20T06:46:41;22.80;82.50
3550;DHT22;45572;48.804;8.330;2022-08-20T06:49:10;22.90;82.30
3550;DHT22;45572;48.804;8.330;2022-08-20T06:51:38;22.90;81.90
3550;DHT22;45572;48.804;8.330;2022-08-20T06:54:08;22.80;82.20
3550;DHT22;45572;48.804;8.330;2022-08-20T06:56:36;22.90;82.30
3550;DHT22;45572;48.804;8.330;2022-08-20T06:59:04;23.00;81.90
3550;DHT22;45572;48.804;8.330;2022-08-20T07:01:31;23.20;81.80
3550;DHT22;45572;48.804;8.330;2022-08-20T07:04:00;23.30;81.60
3550;DHT22;45572;48.804;8.330;2022-08-20T07:06:28;23.40;81.50
3550;DHT22;45572;48.804;8.330;2022-08-20T07:08:56;23.30;80.80
3550;DHT22;45572;48.804;8.330;2022-08-20T07:11:25;23.30;81.20
3550;DHT22;45572;48.804;8.330;2022-08-20T07:13:55;23.30;80.90
3550;DHT22;45572;48.804;8.330;2022-08-20T07:16:24;23.20;81.40
3550;DHT22;45572;48.804;8.330;2022-08-20T07:18:52;23.20;81.40
3550;DHT22;45572;48.804;8.330;2022-08-20T07:21:19;23.20;81.30
3550;DHT22;45572;48.804;8.330;2022-08-20T07:23:47;23.10;81.60
3550;DHT22;45572;48.804;8.330;2022-08-20T07:26:16;23.00;81.80
3550;DHT22;45572;48.804;8.330;2022-08-20T07:28:45;23.00;81.90
3550;DHT22;45572;48.804;8.330;2022-08-20T07:31:13;22.90;82.50
3550;DHT22;45572;48.804;8.330;2022-08-20T07:33:57;22.90;82.70
3550;DHT22;45572;48.804;8.330;2022-08-20T07:36:25;22.90;82.50
3550;DHT22;45572;48.804;8.330;2022-08-20T07:38:53;22.90;82.60
3550;DHT22;45572;48.804;8.330;2022-08-20T07:41:23;23.00;82.50
3550;DHT22;45572;48.804;8.330;2022-08-20T07:43:52;22.80;82.40
3550;DHT22;45572;48.804;8.330;2022-08-20T07:46:20;22.80;82.70
3550;DHT22;45572;48.804;8.330;2022-08-20T07:48:48;22.90;82.80
3550;DHT22;45572;48.804;8.330;2022-08-20T07:51:19;22.90;82.80
3550;DHT22;45572;48.804;8.330;2022-08-20T07:53:49;23.10;82.10
3550;DHT22;45572;48.804;8.330;2022-08-20T07:56:19;23.00;82.40
3550;DHT22;45572;48.804;8.330;2022-08-20T07:58:48;23.00;82.50
3550;DHT22;45572;48.804;8.330;2022-08-20T08:01:19;23.10;82.20
3550;DHT22;45572;48.804;8.330;2022-08-20T08:03:47;23.10;82.10
3550;DHT22;45572;48.804;8.330;2022-08-20T08:06:17;23.10;82.00
3550;DHT22;45572;48.804;8.330;2022-08-20T08:08:58;23.00;82.70
3550;DHT22;45572;48.804;8.330;2022-08-20T08:11:30;23.00;82.80
3550;DHT22;45572;48.804;8.330;2022-08-20T08:13:58;22.90;83.30
3550;DHT22;45572;48.804;8.330;2022-08-20T08:16:28;22.80;84.00
3550;DHT22;45572;48.804;8.330;2022-08-20T08:18:58;22.70;84.80
3550;DHT22;45572;48.804;8.330;2022-08-20T08:21:27;22.70;85.00
3550;DHT22;45572;48.804;8.330;2022-08-20T08:23:56;22.60;84.30
3550;DHT22;45572;48.804;8.330;2022-08-20T08:26:24;22.60;85.70
3550;DHT22;45572;48.804;8.330;2022-08-20T08:28:54;22.70;86.90
3550;DHT22;45572;48.804;8.330;2022-08-20T08:31:22;22.60;86.80
3550;DHT22;45572;48.804;8.330;2022-08-20T08:33:53;22.40;87.10
3550;DHT22;45572;48.804;8.330;2022-08-20T08:36:23;22.30;87.60
3550;DHT22;45572;48.804;8.330;2022-08-20T08:38:53;22.20;87.60
3550;DHT22;45572;48.804;8.330;2022-08-20T08:41:27;22.00;88.30
3550;DHT22;45572;48.804;8.330;2022-08-20T08:44:04;21.90;89.00
3550;DHT22;45572;48.804;8.330;2022-08-20T08:46:38;21.90;89.50
3550;DHT22;45572;48.804;8.330;2022-08-20T08:49:10;21.80;89.60
3550;DHT22;45572;48.804;8.330;2022-08-20T08:51:41;21.80;89.20
3550;DHT22;45572;48.804;8.330;2022-08-20T08:54:13;21.80;90.00
3550;DHT22;45572;48.804;8.330;2022-08-20T08:56:43;21.90;89.90
3550;DHT22;45572;48.804;8.330;2022-08-20T08:59:17;22.00;89.40
3550;DHT22;45572;48.804;8.330;2022-08-20T09:01:47;22.00;88.40
3550;DHT22;45572;48.804;8.330;2022-08-20T09:04:28;22.00;88.00
3550;DHT22;45572;48.804;8.330;2022-08-20T09:06:59;22.10;88.90
3550;DHT22;45572;48.804;8.330;2022-08-20T09:09:30;22.20;88.40
3550;DHT22;45572;48.804;8.330;2022-08-20T09:12:03;22.00;88.30
3550;DHT22;45572;48.804;8.330;2022-08-20T09:14:31;21.90;88.60
3550;DHT22;45572;48.804;8.330;2022-08-20T09:16:59;22.00;89.90
3550;DHT22;45572;48.804;8.330;2022-08-20T09:19:28;22.10;89.50
3550;DHT22;45572;48.804;8.330;2022-08-20T09:21:56;22.20;89.30
3550;DHT22;45572;48.804;8.330;2022-08-20T09:24:24;22.00;89.40
3550;DHT22;45572;48.804;8.330;2022-08-20T09:26:52;21.80;90.90
3550;DHT22;45572;48.804;8.330;2022-08-20T09:29:20;21.80;91.00
3550;DHT22;45572;48.804;8.330;2022-08-20T09:31:48;22.00;90.60
3550;DHT22;45572;48.804;8.330;2022-08-20T09:34:15;22.30;90.40
3550;DHT22;45572;48.804;8.330;2022-08-20T09:36:44;22.40;88.80
3550;DHT22;45572;48.804;8.330;2022-08-20T09:39:12;22.60;89.50
3550;DHT22;45572;48.804;8.330;2022-08-20T09:41:41;22.60;87.50
3550;DHT22;45572;48.804;8.330;2022-08-20T09:44:09;22.50;88.30
3550;DHT22;45572;48.804;8.330;2022-08-20T09:46:37;22.40;88.40
3550;DHT22;45572;48.804;8.330;2022-08-20T09:49:04;22.60;89.40
3550;DHT22;45572;48.804;8.330;2022-08-20T09:51:36;23.00;86.70
3550;DHT22;45572;48.804;8.330;2022-08-20T09:54:05;23.00;87.50
3550;DHT22;45572;48.804;8.330;2022-08-20T09:56:33;24.20;87.00
3550;DHT22;45572;48.804;8.330;2022-08-20T09:59:02;24.80;84.30
3550;DHT22;45572;48.804;8.330;2022-08-20T10:01:30;25.00;81.50
3550;DHT22;45572;48.804;8.330;2022-08-20T10:03:58;26.00;79.40
3550;DHT22;45572;48.804;8.330;2022-08-20T10:06:26;26.70;76.50
3550;DHT22;45572;48.804;8.330;2022-08-20T10:08:54;28.30;74.60
3550;DHT22;45572;48.804;8.330;2022-08-20T10:11:23;29.50;70.10
3550;DHT22;45572;48.804;8.330;2022-08-20T10:13:54;29.60;69.70
3550;DHT22;45572;48.804;8.330;2022-08-20T10:16:22;29.80;67.70
3550;DHT22;45572;48.804;8.330;2022-08-20T10:18:50;30.20;66.00
3550;DHT22;45572;48.804;8.330;2022-08-20T10:21:18;30.20;65.50
3550;DHT22;45572;48.804;8.330;2022-08-20T10:23:46;30.60;66.80
3550;DHT22;45572;48.804;8.330;2022-08-20T10:26:15;30.90;65.00
3550;DHT22;45572;48.804;8.330;2022-08-20T10:28:44;29.50;66.10
3550;DHT22;45572;48.804;8.330;2022-08-20T10:31:13;28.50;68.10
3550;DHT22;45572;48.804;8.330;2022-08-20T10:33:41;27.70;72.80
3550;DHT22;45572;48.804;8.330;2022-08-20T10:36:11;25.80;79.40
3550;DHT22;45572;48.804;8.330;2022-08-20T10:38:40;25.00;83.20
3550;DHT22;45572;48.804;8.330;2022-08-20T10:41:08;24.80;85.30
3550;DHT22;45572;48.804;8.330;2022-08-20T10:43:35;24.80;83.10
3550;DHT22;45572;48.804;8.330;2022-08-20T10:46:05;24.80;81.70
3550;DHT22;45572;48.804;8.330;2022-08-20T10:48:33;24.90;84.00
3550;DHT22;45572;48.804;8.330;2022-08-20T10:51:00;24.90;83.40
3550;DHT22;45572;48.804;8.330;2022-08-20T10:53:28;24.30;84.80
3550;DHT22;45572;48.804;8.330;2022-08-20T10:56:01;24.30;83.40
3550;DHT22;45572;48.804;8.330;2022-08-20T10:58:29;24.40;80.50
3550;DHT22;45572;48.804;8.330;2022-08-20T11:01:07;24.70;83.50
3550;DHT22;45572;48.804;8.330;2022-08-20T11:03:35;25.60;81.10
3550;DHT22;45572;48.804;8.330;2022-08-20T11:06:03;26.60;79.40
3550;DHT22;45572;48.804;8.330;2022-08-20T11:08:31;27.40;76.20
3550;DHT22;45572;48.804;8.330;2022-08-20T11:11:02;27.90;75.40
3550;DHT22;45572;48.804;8.330;2022-08-20T11:13:31;28.40;74.30
3550;DHT22;45572;48.804;8.330;2022-08-20T11:15:59;29.30;70.80
3550;DHT22;45572;48.804;8.330;2022-08-20T11:18:29;30.00;68.20
3550;DHT22;45572;48.804;8.330;2022-08-20T11:20:57;31.10;68.00
3550;DHT22;45572;48.804;8.330;2022-08-20T11:23:28;31.70;61.20
3550;DHT22;45572;48.804;8.330;2022-08-20T11:25:56;32.20;57.60
3550;DHT22;45572;48.804;8.330;2022-08-20T11:28:24;30.90;58.80
3550;DHT22;45572;48.804;8.330;2022-08-20T11:30:59;30.30;59.60
3550;DHT22;45572;48.804;8.330;2022-08-20T11:33:29;30.20;61.20
3550;DHT22;45572;48.804;8.330;2022-08-20T11:35:57;30.00;62.40
3550;DHT22;45572;48.804;8.330;2022-08-20T11:38:25;29.90;61.80
3550;DHT22;45572;48.804;8.330;2022-08-20T11:40:52;30.30;61.50
3550;DHT22;45572;48.804;8.330;2022-08-20T11:43:20;30.40;59.90
3550;DHT22;45572;48.804;8.330;2022-08-20T11:45:49;30.30;59.40
3550;DHT22;45572;48.804;8.330;2022-08-20T11:48:19;30.30;60.40
3550;DHT22;45572;48.804;8.330;2022-08-20T11:50:50;30.90;57.70
3550;DHT22;45572;48.804;8.330;2022-08-20T11:53:18;30.60;59.50
3550;DHT22;45572;48.804;8.330;2022-08-20T11:55:47;31.50;56.70
3550;DHT22;45572;48.804;8.330;2022-08-20T11:58:15;31.30;57.20
3550;DHT22;45572;48.804;8.330;2022-08-20T12:00:43;32.10;55.30
3550;DHT22;45572;48.804;8.330;2022-08-20T12:03:11;33.20;52.40
3550;DHT22;45572;48.804;8.330;2022-08-20T12:05:42;32.90;54.20
3550;DHT22;45572;48.804;8.330;2022-08-20T12:08:13;33.30;53.50
3550;DHT22;45572;48.804;8.330;2022-08-20T12:10:54;33.40;53.10
3550;DHT22;45572;48.804;8.330;2022-08-20T12:13:22;32.50;53.90
3550;DHT22;45572;48.804;8.330;2022-08-20T12:15:57;32.90;52.60
3550;DHT22;45572;48.804;8.330;2022-08-20T12:18:25;32.20;53.30
3550;DHT22;45572;48.804;8.330;2022-08-20T12:20:54;31.90;54.40
3550;DHT22;45572;48.804;8.330;2022-08-20T12:23:23;32.10;55.80
3550;DHT22;45572;48.804;8.330;2022-08-20T12:25:50;32.80;53.00
3550;DHT22;45572;48.804;8.330;2022-08-20T12:28:18;32.00;52.50
3550;DHT22;45572;48.804;8.330;2022-08-20T12:30:51;31.70;55.20
3550;DHT22;45572;48.804;8.330;2022-08-20T12:33:19;31.60;55.80
3550;DHT22;45572;48.804;8.330;2022-08-20T12:35:47;30.60;57.30
3550;DHT22;45572;48.804;8.330;2022-08-20T12:38:15;30.10;57.80
3550;DHT22;45572;48.804;8.330;2022-08-20T12:40:44;29.90;57.20
3550;DHT22;45572;48.804;8.330;2022-08-20T12:43:12;29.30;58.70
3550;DHT22;45572;48.804;8.330;2022-08-20T12:45:40;29.10;58.90
3550;DHT22;45572;48.804;8.330;2022-08-20T12:48:10;28.90;61.00
3550;DHT22;45572;48.804;8.330;2022-08-20T12:50:39;28.90;60.00
3550;DHT22;45572;48.804;8.330;2022-08-20T12:53:08;28.80;60.50
3550;DHT22;45572;48.804;8.330;2022-08-20T12:55:36;28.70;59.40
3550;DHT22;45572;48.804;8.330;2022-08-20T12:58:07;28.80;58.30
3550;DHT22;45572;48.804;8.330;2022-08-20T13:00:39;28.80;58.70
3550;DHT22;45572;48.804;8.330;2022-08-20T13:03:14;28.80;59.40
3550;DHT22;45572;48.804;8.330;2022-08-20T13:05:42;28.70;59.80
3550;DHT22;45572;48.804;8.330;2022-08-20T13:08:11;28.90;60.30
3550;DHT22;45572;48.804;8.330;2022-08-20T13:10:41;28.80;58.80
3550;DHT22;45572;48.804;8.330;2022-08-20T13:13:11;28.60;59.80
3550;DHT22;45572;48.804;8.330;2022-08-20T13:15:39;28.80;58.10
3550;DHT22;45572;48.804;8.330;2022-08-20T13:18:07;28.90;58.80
3550;DHT22;45572;48.804;8.330;2022-08-20T13:20:35;29.10;59.40
3550;DHT22;45572;48.804;8.330;2022-08-20T13:23:04;29.10;57.40
3550;DHT22;45572;48.804;8.330;2022-08-20T13:25:33;29.00;57.40
3550;DHT22;45572;48.804;8.330;2022-08-20T13:28:02;28.90;58.10
3550;DHT22;45572;48.804;8.330;2022-08-20T13:30:34;28.90;59.10
3550;DHT22;45572;48.804;8.330;2022-08-20T13:33:04;28.90;59.00
3550;DHT22;45572;48.804;8.330;2022-08-20T13:35:32;28.90;59.00
3550;DHT22;45572;48.804;8.330;2022-08-20T13:38:00;28.60;59.00
3550;DHT22;45572;48.804;8.330;2022-08-20T13:40:28;28.40;59.30
3550;DHT22;45572;48.804;8.330;2022-08-20T13:42:55;28.20;60.10
3550;DHT22;45572;48.804;8.330;2022-08-20T13:45:24;28.40;60.40
3550;DHT22;45572;48.804;8.330;2022-08-20T13:47:53;28.40;57.00
3550;DHT22;45572;48.804;8.330;2022-08-20T13:50:23;28.30;54.90
3550;DHT22;45572;48.804;8.330;2022-08-20T13:52:51;28.40;57.70
3550;DHT22;45572;48.804;8.330;2022-08-20T13:55:22;28.50;57.70
3550;DHT22;45572;48.804;8.330;2022-08-20T13:57:51;28.20;57.80
3550;DHT22;45572;48.804;8.330;2022-08-20T14:00:22;28.20;57.20
3550;DHT22;45572;48.804;8.330;2022-08-20T14:02:59;28.30;56.90
3550;DHT22;45572;48.804;8.330;2022-08-20T14:05:28;28.40;57.20
3550;DHT22;45572;48.804;8.330;2022-08-20T14:08:03;28.40;54.70
3550;DHT22;45572;48.804;8.330;2022-08-20T14:10:31;28.40;55.50
3550;DHT22;45572;48.804;8.330;2022-08-20T14:12:59;28.40;56.60
3550;DHT22;45572;48.804;8.330;2022-08-20T14:15:29;28.30;56.20
3550;DHT22;45572;48.804;8.330;2022-08-20T14:17:56;28.20;56.10
3550;DHT22;45572;48.804;8.330;2022-08-20T14:20:28;28.00;57.40
3550;DHT22;45572;48.804;8.330;2022-08-20T14:22:58;27.80;58.00
3550;DHT22;45572;48.804;8.330;2022-08-20T14:25:28;28.00;56.30
3550;DHT22;45572;48.804;8.330;2022-08-20T14:27:57;28.00;55.40
3550;DHT22;45572;48.804;8.330;2022-08-20T14:30:27;28.00;55.90
3550;DHT22;45572;48.804;8.330;2022-08-20T14:32:55;28.10;55.60
3550;DHT22;45572;48.804;8.330;2022-08-20T14:35:23;28.10;56.00
3550;DHT22;45572;48.804;8.330;2022-08-20T14:37:53;28.10;55.40
3550;DHT22;45572;48.804;8.330;2022-08-20T14:40:24;28.20;55.50
3550;DHT22;45572;48.804;8.330;2022-08-20T14:42:52;28.20;54.90
3550;DHT22;45572;48.804;8.330;2022-08-20T14:45:21;28.10;55.30
3550;DHT22;45572;48.804;8.330;2022-08-20T14:47:50;28.10;55.20
3550;DHT22;45572;48.804;8.330;2022-08-20T14:50:23;28.00;55.30
3550;DHT22;45572;48.804;8.330;2022-08-20T14:52:53;28.00;55.50
3550;DHT22;45572;48.804;8.330;2022-08-20T14:55:24;28.00;56.30
3550;DHT22;45572;48.804;8.330;2022-08-20T14:57:53;28.10;56.00
3550;DHT22;45572;48.804;8.330;2022-08-20T15:00:25;28.00;55.30
3550;DHT22;45572;48.804;8.330;2022-08-20T15:02:53;28.00;55.50
3550;DHT22;45572;48.804;8.330;2022-08-20T15:05:21;28.00;55.40
3550;DHT22;45572;48.804;8.330;2022-08-20T15:07:50;27.90;55.10
3550;DHT22;45572;48.804;8.330;2022-08-20T15:10:23;27.90;54.20
3550;DHT22;45572;48.804;8.330;2022-08-20T15:12:51;27.90;54.50
3550;DHT22;45572;48.804;8.330;2022-08-20T15:15:20;27.90;55.30
3550;DHT22;45572;48.804;8.330;2022-08-20T15:17:50;27.90;53.90
3550;DHT22;45572;48.804;8.330;2022-08-20T15:20:25;27.90;53.60
3550;DHT22;45572;48.804;8.330;2022-08-20T15:22:53;27.90;54.10
3550;DHT22;45572;48.804;8.330;2022-08-20T15:25:25;27.90;54.20
3550;DHT22;45572;48.804;8.330;2022-08-20T15:28:03;27.90;54.60
3550;DHT22;45572;48.804;8.330;2022-08-20T15:30:31;27.90;55.10
3550;DHT22;45572;48.804;8.330;2022-08-20T15:32:59;27.90;55.70
3550;DHT22;45572;48.804;8.330;2022-08-20T15:35:27;27.90;54.50
3550;DHT22;45572;48.804;8.330;2022-08-20T15:37:57;27.90;55.00
3550;DHT22;45572;48.804;8.330;2022-08-20T15:40:28;27.90;52.10
3550;DHT22;45572;48.804;8.330;2022-08-20T15:42:57;27.80;52.40
3550;DHT22;45572;48.804;8.330;2022-08-20T15:45:25;27.70;50.70
3550;DHT22;45572;48.804;8.330;2022-08-20T15:48:00;27.50;51.20
3550;DHT22;45572;48.804;8.330;2022-08-20T15:50:50;27.50;54.00
3550;DHT22;45572;48.804;8.330;2022-08-20T15:53:26;27.50;53.20
3550;DHT22;45572;48.804;8.330;2022-08-20T15:56:02;27.20;51.20
3550;DHT22;45572;48.804;8.330;2022-08-20T15:58:35;27.20;53.70
3550;DHT22;45572;48.804;8.330;2022-08-20T16:01:11;27.10;53.20
3550;DHT22;45572;48.804;8.330;2022-08-20T16:04:04;27.20;52.70